createdAt,value
2018-02-04T00:02:38.091Z,3.30
2018-02-04T00:05:40.242Z,3.20
2018-02-04T00:08:41.602Z,3.10
2018-02-04T00:11:42.978Z,3.30
2018-02-04T00:14:45.098Z,3.40
2018-02-04T00:17:46.512Z,3.40
2018-02-04T00:20:48.626Z,3.40
2018-02-04T00:23:50.004Z,3.40
2018-02-04T00:26:51.394Z,3.10
2018-02-04T00:29:52.808Z,3.40
2018-02-04T00:32:54.188Z,3.50
2018-02-04T00:35:55.586Z,3.40
2018-02-04T00:38:57.203Z,3.40
2018-02-04T00:41:59.332Z,3.50
2018-02-04T00:45:00.712Z,3.40
2018-02-04T00:48:02.082Z,3.10
2018-02-04T00:51:03.458Z,3.40
2018-02-04T00:54:05.539Z,3.40
2018-02-04T00:57:07.680Z,3.40
2018-02-04T01:00:09.062Z,3.40
2018-02-04T01:03:10.445Z,3.40
2018-02-04T01:06:11.840Z,3.30
2018-02-04T01:09:13.187Z,3.40
2018-02-04T01:12:14.601Z,3.50
2018-02-04T01:15:16.030Z,3.40
2018-02-04T01:18:18.176Z,3.30
2018-02-04T01:21:19.520Z,3.20
2018-02-04T01:24:21.662Z,3.30
2018-02-04T01:27:23.030Z,3.30
2018-02-04T01:30:24.403Z,3.00
2018-02-04T01:33:32.675Z,3.30
2018-02-04T01:36:34.090Z,3.00
2018-02-04T01:39:36.246Z,3.20
2018-02-04T01:42:37.587Z,3.20
2018-02-04T01:45:39.152Z,3.00
2018-02-04T01:48:40.529Z,2.90
2018-02-04T01:51:41.860Z,3.10
2018-02-04T01:54:43.246Z,2.80
2018-02-04T01:57:44.609Z,2.60
2018-02-04T02:00:45.982Z,2.80
2018-02-04T02:03:48.108Z,3.00
2018-02-04T02:06:49.546Z,2.80
2018-02-04T02:09:51.626Z,3.00
2018-02-04T02:12:53.013Z,3.00
2018-02-04T02:15:54.391Z,3.00
2018-02-04T02:18:55.738Z,3.00
2018-02-04T02:21:57.176Z,3.10
2018-02-04T02:24:59.271Z,3.00
2018-02-04T02:28:01.339Z,3.00
2018-02-04T02:31:02.720Z,2.80
2018-02-04T02:34:04.483Z,2.90
2018-02-04T02:37:06.318Z,2.80
2018-02-04T02:40:08.832Z,3.00
2018-02-04T02:43:10.677Z,2.90
2018-02-04T02:46:12.042Z,3.00
2018-02-04T02:49:13.480Z,2.70
2018-02-04T02:52:14.913Z,2.90
2018-02-04T02:55:17.105Z,2.60
2018-02-04T02:58:18.448Z,2.90
2018-02-04T03:01:19.848Z,2.70
2018-02-04T03:04:22.012Z,2.80
2018-02-04T03:07:23.436Z,2.80
2018-02-04T03:10:24.805Z,2.80
2018-02-04T03:13:26.957Z,2.90
2018-02-04T03:16:28.381Z,2.90
2018-02-04T03:19:30.531Z,2.90
2018-02-04T03:22:31.911Z,2.80
2018-02-04T03:25:33.318Z,2.60
2018-02-04T03:28:34.677Z,2.70
2018-02-04T03:31:36.089Z,2.80
2018-02-04T03:34:38.200Z,2.80
2018-02-04T03:37:40.359Z,2.80
2018-02-04T03:40:41.749Z,2.70
2018-02-04T03:43:43.166Z,2.80
2018-02-04T03:46:45.286Z,2.80
2018-02-04T03:49:47.269Z,2.80
2018-02-04T03:52:49.422Z,2.70
2018-02-04T03:55:50.817Z,2.70
2018-02-04T03:58:52.192Z,2.70
2018-02-04T04:01:53.604Z,2.70
2018-02-04T04:04:55.714Z,2.70
2018-02-04T04:07:57.846Z,2.80
2018-02-04T04:10:59.253Z,2.70
2018-02-04T04:14:00.696Z,2.70
2018-02-04T04:17:02.143Z,2.50
2018-02-04T04:20:03.519Z,2.60
2018-02-04T04:23:04.870Z,2.40
2018-02-04T04:26:06.260Z,2.70
2018-02-04T04:29:07.644Z,2.70
2018-02-04T04:32:09.011Z,2.70
2018-02-04T04:35:10.358Z,2.90
2018-02-04T04:38:11.775Z,2.60
2018-02-04T04:41:13.124Z,2.70
2018-02-04T04:44:14.485Z,2.70
2018-02-04T04:47:16.654Z,2.70
2018-02-04T04:50:18.046Z,2.60
2018-02-04T04:53:19.398Z,2.30
2018-02-04T04:56:21.513Z,2.60
2018-02-04T04:59:22.893Z,2.60
2018-02-04T05:02:24.227Z,2.50
2018-02-04T05:05:25.595Z,2.30
2018-02-04T05:08:27.663Z,2.50
2018-02-04T05:11:29.075Z,2.50
2018-02-04T05:14:30.410Z,2.60
2018-02-04T05:17:31.766Z,2.60
2018-02-04T05:20:33.125Z,2.60
2018-02-04T05:23:34.464Z,2.60
2018-02-04T05:26:35.844Z,2.50
2018-02-04T05:29:37.200Z,2.50
2018-02-04T05:32:38.586Z,2.70
2018-02-04T05:35:40.002Z,2.50
2018-02-04T05:38:42.132Z,2.60
2018-02-04T05:41:43.466Z,2.50
2018-02-04T05:44:44.828Z,2.50
2018-02-04T05:47:46.228Z,2.20
2018-02-04T05:50:47.690Z,2.50
2018-02-04T05:53:49.080Z,2.50
2018-02-04T05:56:50.453Z,2.50
2018-02-04T05:59:51.798Z,2.50
2018-02-04T06:02:53.180Z,2.50
2018-02-04T06:05:54.526Z,2.60
2018-02-04T06:08:55.914Z,2.30
2018-02-04T06:11:58.003Z,2.60
2018-02-04T06:14:59.384Z,2.50
2018-02-04T06:18:00.747Z,2.60
2018-02-04T06:21:02.136Z,2.60
2018-02-04T06:24:03.507Z,2.30
2018-02-04T06:27:04.924Z,2.30
2018-02-04T06:30:07.012Z,2.50
2018-02-04T06:33:08.437Z,2.50
2018-02-04T06:36:09.754Z,2.40
2018-02-04T06:39:11.115Z,2.50
2018-02-04T06:42:12.433Z,2.20
2018-02-04T06:45:13.877Z,2.50
2018-02-04T06:48:15.215Z,2.60
2018-02-04T06:51:16.617Z,2.40
2018-02-04T06:54:18.008Z,2.50
2018-02-04T06:57:19.397Z,2.50
2018-02-04T07:00:20.709Z,2.60
2018-02-04T07:03:22.081Z,2.40
2018-02-04T07:06:23.510Z,2.60
2018-02-04T07:09:25.591Z,2.50
2018-02-04T07:12:27.655Z,2.50
2018-02-04T07:15:29.017Z,2.30
2018-02-04T07:18:30.318Z,2.40
2018-02-04T07:21:31.749Z,2.50
2018-02-04T07:24:33.105Z,2.50
2018-02-04T07:27:35.190Z,2.50
2018-02-04T07:30:36.541Z,2.50
2018-02-04T07:33:37.912Z,2.60
2018-02-04T07:36:39.294Z,2.60
2018-02-04T07:39:40.614Z,2.60
2018-02-04T07:42:41.976Z,2.60
2018-02-04T07:45:43.350Z,2.60
2018-02-04T07:48:44.670Z,2.70
2018-02-04T07:51:46.739Z,2.60
2018-02-04T07:54:48.087Z,2.90
2018-02-04T07:57:49.452Z,2.60
2018-02-04T08:00:50.818Z,2.50
2018-02-04T08:03:53.116Z,2.40
2018-02-04T08:06:55.186Z,2.40
2018-02-04T08:09:56.636Z,2.10
2018-02-04T08:12:57.958Z,2.40
2018-02-04T08:15:59.317Z,2.50
2018-02-04T08:19:00.690Z,2.60
2018-02-04T08:22:02.050Z,2.50
2018-02-04T08:25:03.389Z,2.70
2018-02-04T08:28:04.731Z,2.60
2018-02-04T08:31:06.003Z,2.80
2018-02-04T08:34:07.334Z,2.90
2018-02-04T08:37:09.440Z,2.70
2018-02-04T08:40:11.540Z,2.70
2018-02-04T08:43:13.601Z,2.70
2018-02-04T08:46:14.926Z,2.60
2018-02-04T08:49:16.230Z,2.90
2018-02-04T08:52:17.582Z,2.70
2018-02-04T08:55:19.663Z,2.70
2018-02-04T08:58:21.764Z,2.70
2018-02-04T09:01:23.921Z,3.60
2018-02-04T09:04:25.254Z,3.30
2018-02-04T09:07:26.575Z,4.00
2018-02-04T09:10:27.886Z,3.50
2018-02-04T09:13:29.405Z,3.00
2018-02-04T09:16:30.738Z,2.80
2018-02-04T09:19:32.062Z,2.80
2018-02-04T09:22:34.161Z,2.80
2018-02-04T09:25:35.537Z,2.70
2018-02-04T09:28:37.726Z,2.70
2018-02-04T09:31:40.120Z,2.80
2018-02-04T09:34:43.107Z,2.80
2018-02-04T09:37:44.689Z,2.70
2018-02-04T09:40:46.492Z,2.70
2018-02-04T09:43:47.854Z,2.60
2018-02-04T09:46:49.416Z,2.80
2018-02-04T09:49:52.181Z,2.80
2018-02-04T09:52:55.347Z,2.80
2018-02-04T09:55:57.591Z,2.70
2018-02-04T09:58:59.177Z,2.60
2018-02-04T10:02:00.575Z,2.80
2018-02-04T10:05:01.899Z,2.70
2018-02-04T10:08:03.916Z,2.60
2018-02-04T10:11:05.283Z,2.40
2018-02-04T10:14:06.885Z,2.80
2018-02-04T10:17:08.322Z,2.60
2018-02-04T10:20:09.752Z,2.80
2018-02-04T10:23:12.628Z,2.60
2018-02-04T10:26:13.978Z,2.60
2018-02-04T10:29:15.233Z,2.60
2018-02-04T10:32:16.658Z,2.70
2018-02-04T10:35:18.348Z,2.70
2018-02-04T10:38:19.682Z,2.60
2018-02-04T10:41:21.018Z,2.50
2018-02-04T10:44:22.352Z,2.40
2018-02-04T10:47:23.655Z,2.40
2018-02-04T10:50:25.378Z,2.50
2018-02-04T10:53:26.712Z,2.60
2018-02-04T10:56:28.039Z,2.60
2018-02-04T10:59:30.229Z,2.80
2018-02-04T11:02:31.558Z,2.70
2018-02-04T11:05:32.958Z,2.90
2018-02-04T11:08:34.702Z,2.80
2018-02-04T11:11:36.123Z,2.70
2018-02-04T11:14:37.568Z,3.10
2018-02-04T11:17:40.797Z,3.80
2018-02-04T11:20:42.144Z,3.70
2018-02-04T11:23:43.640Z,3.40
2018-02-04T11:26:45.761Z,3.10
2018-02-04T11:29:47.172Z,3.10
2018-02-04T11:32:48.645Z,3.00
2018-02-04T11:35:51.465Z,2.80
2018-02-04T11:38:52.843Z,2.90
2018-02-04T11:41:54.257Z,3.10
2018-02-04T11:44:55.702Z,2.90
2018-02-04T11:47:57.023Z,2.80
2018-02-04T11:50:58.380Z,3.00
2018-02-04T11:53:59.785Z,2.60
2018-02-04T11:57:01.138Z,3.00
2018-02-04T12:00:02.603Z,3.00
2018-02-04T12:03:03.942Z,2.90
2018-02-04T12:06:05.309Z,3.30
2018-02-04T12:09:06.649Z,3.20
2018-02-04T12:12:08.042Z,3.20
2018-02-04T12:15:09.428Z,3.00
2018-02-04T12:18:10.803Z,3.10
2018-02-04T12:21:12.166Z,3.10
2018-02-04T12:24:13.531Z,3.10
2018-02-04T12:27:15.592Z,3.10
2018-02-04T12:30:16.953Z,2.90
2018-02-04T12:33:18.290Z,3.00
2018-02-04T12:36:20.395Z,3.70
2018-02-04T12:39:21.710Z,3.70
2018-02-04T12:42:23.039Z,3.70
2018-02-04T12:45:25.094Z,3.60
2018-02-04T12:48:26.450Z,3.60
2018-02-04T12:51:27.819Z,3.30
2018-02-04T12:54:29.291Z,3.30
2018-02-04T12:57:30.597Z,3.10
2018-02-04T13:00:31.928Z,3.00
2018-02-04T13:03:33.990Z,2.90
2018-02-04T13:06:35.369Z,2.80
2018-02-04T13:09:36.752Z,2.90
2018-02-04T13:12:38.087Z,2.80
2018-02-04T13:15:40.247Z,2.80
2018-02-04T13:18:41.773Z,2.80
2018-02-04T13:21:43.139Z,2.80
2018-02-04T13:24:45.289Z,2.80
2018-02-04T13:27:46.654Z,2.80
2018-02-04T13:30:48.011Z,2.80
2018-02-04T13:33:50.437Z,2.80
2018-02-04T13:36:51.926Z,2.80
2018-02-04T13:39:53.582Z,2.70
2018-02-04T13:42:55.635Z,2.80
2018-02-04T13:45:56.990Z,2.80
2018-02-04T13:48:58.530Z,2.60
2018-02-04T13:52:00.081Z,2.90
2018-02-04T13:55:01.418Z,2.80
2018-02-04T13:58:03.577Z,3.00
2018-02-04T14:01:04.909Z,2.90
2018-02-04T14:04:06.253Z,3.00
2018-02-04T14:07:07.638Z,2.90
2018-02-04T14:10:08.934Z,3.40
2018-02-04T14:13:10.994Z,3.40
2018-02-04T14:16:12.743Z,3.40
2018-02-04T14:19:14.210Z,3.40
2018-02-04T14:22:15.718Z,3.10
2018-02-04T14:25:17.127Z,2.90
2018-02-04T14:28:18.432Z,2.90
2018-02-04T14:31:20.194Z,3.00
2018-02-04T14:34:21.789Z,2.90
2018-02-04T14:37:23.333Z,2.80
2018-02-04T14:40:24.862Z,2.70
2018-02-04T14:43:26.588Z,2.50
2018-02-04T14:46:28.272Z,2.90
2018-02-04T14:49:29.678Z,2.70
2018-02-04T14:52:31.076Z,2.80
2018-02-04T14:55:32.456Z,2.80
2018-02-04T14:58:33.766Z,2.80
2018-02-04T15:01:35.039Z,2.60
2018-02-04T15:04:37.334Z,2.70
2018-02-04T15:07:38.834Z,2.60
2018-02-04T15:10:40.413Z,2.50
2018-02-04T15:13:41.747Z,2.50
2018-02-04T15:16:43.467Z,2.50
2018-02-04T15:19:45.097Z,2.60
2018-02-04T15:22:47.261Z,2.70
2018-02-04T15:25:48.876Z,2.60
2018-02-04T15:28:50.282Z,2.60
2018-02-04T15:31:51.734Z,2.60
2018-02-04T15:34:53.500Z,2.60
2018-02-04T15:37:55.231Z,2.80
2018-02-04T15:40:57.641Z,2.80
2018-02-04T15:43:59.078Z,2.90
2018-02-04T15:47:00.465Z,2.70
2018-02-04T15:50:01.897Z,3.60
2018-02-04T15:53:03.526Z,4.00
2018-02-04T15:56:04.998Z,3.70
2018-02-04T15:59:06.423Z,3.30
2018-02-04T16:02:08.027Z,2.90
2018-02-04T16:05:09.427Z,3.00
2018-02-04T16:08:10.752Z,2.50
2018-02-04T16:11:12.320Z,3.10
2018-02-04T16:14:13.731Z,3.40
2018-02-04T16:17:15.095Z,3.20
2018-02-04T16:20:16.506Z,2.70
2018-02-04T16:23:18.633Z,2.70
2018-02-04T16:26:20.012Z,2.70
2018-02-04T16:29:22.086Z,2.70
2018-02-04T16:32:23.490Z,2.70
2018-02-04T16:35:25.539Z,2.80
2018-02-04T16:38:26.865Z,2.50
2018-02-04T16:41:28.915Z,2.70
2018-02-04T16:44:31.069Z,2.70
2018-02-04T16:47:32.370Z,2.60
2018-02-04T16:50:33.667Z,2.60
2018-02-04T16:53:34.993Z,2.70
2018-02-04T16:56:37.167Z,2.60
2018-02-04T16:59:39.343Z,2.60
2018-02-04T17:02:40.707Z,2.90
2018-02-04T17:05:41.993Z,2.40
2018-02-04T17:08:43.254Z,2.60
2018-02-04T17:11:44.657Z,2.70
2018-02-04T17:14:45.998Z,2.40
2018-02-04T17:17:48.087Z,2.70
2018-02-04T17:20:50.174Z,2.70
2018-02-04T17:23:51.490Z,2.60
2018-02-04T17:26:52.834Z,2.80
2018-02-04T17:29:54.149Z,2.60
2018-02-04T17:32:55.518Z,2.60
2018-02-04T17:35:57.585Z,2.50
2018-02-04T17:38:58.914Z,2.50
2018-02-04T17:42:00.210Z,2.50
2018-02-04T17:45:01.545Z,2.40
2018-02-04T17:48:03.560Z,2.40
2018-02-04T17:51:04.877Z,2.40
2018-02-04T17:54:11.083Z,2.40
2018-02-04T17:57:12.387Z,2.60
2018-02-04T18:00:13.666Z,2.40
2018-02-04T18:03:15.154Z,2.50
2018-02-04T18:06:16.489Z,2.40
2018-02-04T18:09:18.601Z,2.40
2018-02-04T18:12:19.889Z,2.40
2018-02-04T18:15:21.203Z,2.40
2018-02-04T18:18:23.237Z,2.30
2018-02-04T18:21:24.537Z,2.20
2018-02-04T18:24:26.261Z,2.20
2018-02-04T18:27:27.574Z,2.30
2018-02-04T18:30:28.947Z,2.40
2018-02-04T18:33:30.312Z,2.40
2018-02-04T18:36:32.399Z,2.40
2018-02-04T18:39:33.752Z,2.30
2018-02-04T18:42:35.019Z,2.30
2018-02-04T18:45:36.558Z,2.40
2018-02-04T18:48:38.196Z,2.40
2018-02-04T18:51:39.839Z,2.30
2018-02-04T18:54:41.674Z,2.40
2018-02-04T18:57:43.061Z,2.30
2018-02-04T19:00:44.347Z,2.30
2018-02-04T19:03:47.842Z,2.30
2018-02-04T19:06:49.297Z,2.40
2018-02-04T19:09:51.457Z,3.00
2018-02-04T19:12:54.001Z,2.70
2018-02-04T19:15:56.810Z,2.60
2018-02-04T19:18:58.458Z,2.50
2018-02-04T19:22:01.443Z,2.50
2018-02-04T19:25:02.889Z,2.50
2018-02-04T19:28:05.251Z,2.30
2018-02-04T19:31:09.034Z,2.30
2018-02-04T19:34:11.642Z,2.30
2018-02-04T19:37:13.133Z,2.20
2018-02-04T19:40:14.595Z,2.30
2018-02-04T19:43:16.793Z,2.20
2018-02-04T19:46:18.349Z,2.40
2018-02-04T19:49:19.741Z,2.50
2018-02-04T19:52:21.535Z,2.20
2018-02-04T19:55:23.176Z,2.40
2018-02-04T19:58:24.881Z,2.40
2018-02-04T20:01:26.759Z,2.20
2018-02-04T20:04:28.599Z,2.30
2018-02-04T20:07:30.034Z,2.30
2018-02-04T20:10:32.252Z,2.40
2018-02-04T20:13:33.595Z,2.30
2018-02-04T20:16:35.200Z,2.20
2018-02-04T20:19:37.250Z,2.30
2018-02-04T20:22:38.900Z,2.30
2018-02-04T20:25:40.725Z,2.30
2018-02-04T20:28:43.049Z,2.30
2018-02-04T20:31:44.660Z,2.30
2018-02-04T20:34:51.200Z,2.20
2018-02-04T20:37:52.822Z,2.20
2018-02-04T20:40:55.010Z,2.30
2018-02-04T20:43:56.682Z,2.30
2018-02-04T20:46:58.479Z,2.20
2018-02-04T20:49:59.849Z,2.30
2018-02-04T20:53:01.237Z,2.40
2018-02-04T20:56:02.675Z,2.30
2018-02-04T20:59:04.731Z,2.40
2018-02-04T21:02:06.030Z,2.30
2018-02-04T21:05:07.501Z,2.40
2018-02-04T21:08:08.804Z,2.40
2018-02-04T21:11:10.578Z,2.30
2018-02-04T21:14:13.560Z,2.90
2018-02-04T21:17:15.114Z,2.70
2018-02-04T21:20:17.383Z,2.50
2018-02-04T21:23:18.993Z,2.40
2018-02-04T21:26:21.120Z,2.40
2018-02-04T21:29:22.572Z,2.20
2018-02-04T21:32:23.900Z,2.30
2018-02-04T21:35:25.246Z,2.30
2018-02-04T21:38:27.343Z,2.20
2018-02-04T21:41:29.602Z,2.20
2018-02-04T21:44:30.942Z,2.20
2018-02-04T21:47:32.276Z,2.20
2018-02-04T21:50:33.596Z,2.10
2018-02-04T21:53:36.190Z,2.10
2018-02-04T21:56:37.533Z,2.10
2018-02-04T21:59:38.970Z,2.10
2018-02-04T22:02:40.459Z,2.00
2018-02-04T22:05:41.873Z,1.90
2018-02-04T22:08:43.634Z,1.90
2018-02-04T22:11:45.017Z,2.20
2018-02-04T22:14:46.422Z,1.90
2018-02-04T22:17:47.912Z,1.90
2018-02-04T22:20:50.478Z,1.90
2018-02-04T22:23:51.866Z,1.80
2018-02-04T22:26:53.296Z,1.80
2018-02-04T22:29:54.715Z,1.80
2018-02-04T22:32:56.915Z,1.90
2018-02-04T22:35:59.032Z,1.90
2018-02-04T22:39:00.380Z,1.90
2018-02-04T22:42:01.704Z,1.90
2018-02-04T22:45:03.115Z,1.70
2018-02-04T22:48:04.419Z,1.60
2018-02-04T22:51:05.684Z,1.90
2018-02-04T22:54:07.726Z,1.80
2018-02-04T22:57:09.087Z,1.60
2018-02-04T23:00:11.146Z,1.90
2018-02-04T23:03:12.422Z,1.80
2018-02-04T23:06:13.732Z,1.90
2018-02-04T23:09:14.987Z,2.00
2018-02-04T23:12:16.430Z,2.00
2018-02-04T23:15:17.752Z,2.00
2018-02-04T23:18:19.088Z,2.00
2018-02-04T23:21:20.647Z,2.00
2018-02-04T23:24:22.015Z,1.90
2018-02-04T23:27:23.416Z,1.90
2018-02-04T23:30:25.534Z,1.90
2018-02-04T23:33:26.891Z,1.80
2018-02-04T23:36:28.269Z,1.90
2018-02-04T23:39:29.609Z,1.80
2018-02-04T23:42:30.987Z,1.80
2018-02-04T23:45:32.389Z,1.90
2018-02-04T23:48:33.875Z,1.90
2018-02-04T23:51:35.385Z,1.70
2018-02-04T23:54:37.502Z,1.70
2018-02-04T23:57:38.955Z,1.70
